sensor_id;sensor_type;location;lat;lon;timestamp;P1;durP1;ratioP1;P2;durP2;ratioP2
78618;SDS011;67941;52.506;5.470;2023-06-26T00:00:36;5.18;;;2.90;;
78618;SDS011;67941;52.506;5.470;2023-06-26T00:03:05;5.80;;;3.45;;
78618;SDS011;67941;52.506;5.470;2023-06-26T00:05:34;4.95;;;2.08;;
78618;SDS011;67941;52.506;5.470;2023-06-26T00:08:03;5.53;;;2.80;;
78618;SDS011;67941;52.506;5.470;2023-06-26T00:10:32;3.78;;;2.08;;
78618;SDS011;67941;52.506;5.470;2023-06-26T00:13:01;4.40;;;2.78;;
78618;SDS011;67941;52.506;5.470;2023-06-26T00:15:30;4.78;;;2.70;;
78618;SDS011;67941;52.506;5.470;2023-06-26T00:18:01;5.00;;;2.70;;
78618;SDS011;67941;52.506;5.470;2023-06-26T00:20:30;4.03;;;2.10;;
78618;SDS011;67941;52.506;5.470;2023-06-26T00:22:59;4.25;;;2.38;;
78618;SDS011;67941;52.506;5.470;2023-06-26T00:25:29;5.85;;;3.10;;
78618;SDS011;67941;52.506;5.470;2023-06-26T00:27:58;4.47;;;2.55;;
78618;SDS011;67941;52.506;5.470;2023-06-26T00:30:27;4.53;;;2.33;;
78618;SDS011;67941;52.506;5.470;2023-06-26T00:32:56;4.82;;;2.70;;
78618;SDS011;67941;52.506;5.470;2023-06-26T00:35:28;4.85;;;2.78;;
78618;SDS011;67941;52.506;5.470;2023-06-26T00:37:57;4.55;;;2.47;;
78618;SDS011;67941;52.506;5.470;2023-06-26T00:40:25;3.70;;;2.08;;
78618;SDS011;67941;52.506;5.470;2023-06-26T00:42:55;4.43;;;2.60;;
78618;SDS011;67941;52.506;5.470;2023-06-26T00:45:24;2.80;;;1.73;;
78618;SDS011;67941;52.506;5.470;2023-06-26T00:47:53;3.88;;;2.63;;
78618;SDS011;67941;52.506;5.470;2023-06-26T00:50:22;7.82;;;3.45;;
78618;SDS011;67941;52.506;5.470;2023-06-26T00:52:55;4.35;;;2.45;;
78618;SDS011;67941;52.506;5.470;2023-06-26T00:55:25;4.85;;;2.92;;
78618;SDS011;67941;52.506;5.470;2023-06-26T00:57:54;3.83;;;2.30;;
78618;SDS011;67941;52.506;5.470;2023-06-26T01:00:27;4.53;;;2.42;;
78618;SDS011;67941;52.506;5.470;2023-06-26T01:02:57;3.63;;;2.03;;
78618;SDS011;67941;52.506;5.470;2023-06-26T01:05:26;3.45;;;1.98;;
78618;SDS011;67941;52.506;5.470;2023-06-26T01:07:58;3.63;;;1.90;;
78618;SDS011;67941;52.506;5.470;2023-06-26T01:10:28;4.65;;;2.22;;
78618;SDS011;67941;52.506;5.470;2023-06-26T01:12:59;3.10;;;1.38;;
78618;SDS011;67941;52.506;5.470;2023-06-26T01:15:28;4.97;;;2.22;;
78618;SDS011;67941;52.506;5.470;2023-06-26T01:17:57;3.53;;;2.05;;
78618;SDS011;67941;52.506;5.470;2023-06-26T01:20:29;3.55;;;2.05;;
78618;SDS011;67941;52.506;5.470;2023-06-26T01:23:03;4.40;;;2.08;;
78618;SDS011;67941;52.506;5.470;2023-06-26T01:25:44;2.95;;;1.75;;
78618;SDS011;67941;52.506;5.470;2023-06-26T01:28:26;3.65;;;1.92;;
78618;SDS011;67941;52.506;5.470;2023-06-26T01:30:57;2.90;;;1.85;;
78618;SDS011;67941;52.506;5.470;2023-06-26T01:35:58;4.30;;;1.95;;
78618;SDS011;67941;52.506;5.470;2023-06-26T01:38:27;3.28;;;1.33;;
78618;SDS011;67941;52.506;5.470;2023-06-26T01:40:56;3.60;;;1.70;;
78618;SDS011;67941;52.506;5.470;2023-06-26T01:43:29;4.93;;;1.90;;
78618;SDS011;67941;52.506;5.470;2023-06-26T01:46:07;3.22;;;1.65;;
78618;SDS011;67941;52.506;5.470;2023-06-26T01:48:46;5.18;;;1.73;;
78618;SDS011;67941;52.506;5.470;2023-06-26T01:51:19;2.63;;;1.55;;
78618;SDS011;67941;52.506;5.470;2023-06-26T01:56:21;2.95;;;1.20;;
78618;SDS011;67941;52.506;5.470;2023-06-26T01:58:55;2.60;;;1.30;;
78618;SDS011;67941;52.506;5.470;2023-06-26T02:01:25;2.85;;;1.50;;
78618;SDS011;67941;52.506;5.470;2023-06-26T02:03:55;2.95;;;1.20;;
78618;SDS011;67941;52.506;5.470;2023-06-26T02:06:24;2.15;;;1.02;;
78618;SDS011;67941;52.506;5.470;2023-06-26T02:08:53;3.38;;;1.42;;
78618;SDS011;67941;52.506;5.470;2023-06-26T02:11:22;3.35;;;1.60;;
78618;SDS011;67941;52.506;5.470;2023-06-26T02:13:51;4.35;;;1.80;;
78618;SDS011;67941;52.506;5.470;2023-06-26T02:16:23;2.42;;;1.33;;
78618;SDS011;67941;52.506;5.470;2023-06-26T02:18:51;4.03;;;1.50;;
78618;SDS011;67941;52.506;5.470;2023-06-26T02:21:23;2.08;;;1.00;;
78618;SDS011;67941;52.506;5.470;2023-06-26T02:23:55;3.22;;;1.50;;
78618;SDS011;67941;52.506;5.470;2023-06-26T02:26:24;3.65;;;1.70;;
78618;SDS011;67941;52.506;5.470;2023-06-26T02:28:56;3.63;;;2.08;;
78618;SDS011;67941;52.506;5.470;2023-06-26T02:31:25;3.03;;;1.27;;
78618;SDS011;67941;52.506;5.470;2023-06-26T02:33:55;3.05;;;1.60;;
78618;SDS011;67941;52.506;5.470;2023-06-26T02:36:23;2.63;;;1.50;;
78618;SDS011;67941;52.506;5.470;2023-06-26T02:38:52;3.15;;;1.40;;
78618;SDS011;67941;52.506;5.470;2023-06-26T02:41:21;3.75;;;2.03;;
78618;SDS011;67941;52.506;5.470;2023-06-26T02:43:51;3.13;;;1.40;;
78618;SDS011;67941;52.506;5.470;2023-06-26T02:46:22;3.08;;;1.20;;
78618;SDS011;67941;52.506;5.470;2023-06-26T02:48:51;2.60;;;1.17;;
78618;SDS011;67941;52.506;5.470;2023-06-26T02:51:21;3.53;;;1.40;;
78618;SDS011;67941;52.506;5.470;2023-06-26T02:53:51;5.50;;;1.80;;
78618;SDS011;67941;52.506;5.470;2023-06-26T02:56:20;3.28;;;1.15;;
78618;SDS011;67941;52.506;5.470;2023-06-26T02:58:49;4.82;;;1.92;;
78618;SDS011;67941;52.506;5.470;2023-06-26T03:01:18;3.42;;;1.52;;
78618;SDS011;67941;52.506;5.470;2023-06-26T03:03:50;4.55;;;1.50;;
78618;SDS011;67941;52.506;5.470;2023-06-26T03:06:20;4.88;;;1.60;;
78618;SDS011;67941;52.506;5.470;2023-06-26T03:08:49;4.57;;;1.70;;
78618;SDS011;67941;52.506;5.470;2023-06-26T03:11:19;3.50;;;1.10;;
78618;SDS011;67941;52.506;5.470;2023-06-26T03:13:49;2.80;;;1.30;;
78618;SDS011;67941;52.506;5.470;2023-06-26T03:16:18;4.97;;;2.13;;
78618;SDS011;67941;52.506;5.470;2023-06-26T03:18:47;3.95;;;1.25;;
78618;SDS011;67941;52.506;5.470;2023-06-26T03:21:18;2.92;;;0.90;;
78618;SDS011;67941;52.506;5.470;2023-06-26T03:23:47;2.85;;;1.40;;
78618;SDS011;67941;52.506;5.470;2023-06-26T03:26:16;5.25;;;1.27;;
78618;SDS011;67941;52.506;5.470;2023-06-26T03:28:47;4.93;;;1.42;;
78618;SDS011;67941;52.506;5.470;2023-06-26T03:31:17;5.22;;;1.75;;
78618;SDS011;67941;52.506;5.470;2023-06-26T03:33:47;4.88;;;1.52;;
78618;SDS011;67941;52.506;5.470;2023-06-26T03:36:18;3.08;;;1.50;;
78618;SDS011;67941;52.506;5.470;2023-06-26T03:38:47;8.80;;;1.42;;
78618;SDS011;67941;52.506;5.470;2023-06-26T03:41:18;4.72;;;1.20;;
78618;SDS011;67941;52.506;5.470;2023-06-26T03:43:47;4.45;;;2.22;;
78618;SDS011;67941;52.506;5.470;2023-06-26T03:46:20;4.22;;;1.80;;
78618;SDS011;67941;52.506;5.470;2023-06-26T03:48:51;4.20;;;1.73;;
78618;SDS011;67941;52.506;5.470;2023-06-26T03:51:20;3.97;;;1.42;;
78618;SDS011;67941;52.506;5.470;2023-06-26T03:53:49;3.95;;;1.45;;
78618;SDS011;67941;52.506;5.470;2023-06-26T03:56:18;3.83;;;1.40;;
78618;SDS011;67941;52.506;5.470;2023-06-26T03:58:48;2.72;;;1.15;;
78618;SDS011;67941;52.506;5.470;2023-06-26T04:01:17;4.78;;;1.20;;
78618;SDS011;67941;52.506;5.470;2023-06-26T04:03:47;3.20;;;1.50;;
78618;SDS011;67941;52.506;5.470;2023-06-26T04:06:19;3.22;;;1.20;;
78618;SDS011;67941;52.506;5.470;2023-06-26T04:08:48;3.08;;;1.10;;
78618;SDS011;67941;52.506;5.470;2023-06-26T04:11:17;3.88;;;1.40;;
78618;SDS011;67941;52.506;5.470;2023-06-26T04:13:46;3.45;;;1.05;;
78618;SDS011;67941;52.506;5.470;2023-06-26T04:16:15;2.50;;;1.30;;
78618;SDS011;67941;52.506;5.470;2023-06-26T04:18:43;2.60;;;0.73;;
78618;SDS011;67941;52.506;5.470;2023-06-26T04:21:15;3.00;;;1.30;;
78618;SDS011;67941;52.506;5.470;2023-06-26T04:24:02;1.92;;;0.95;;
78618;SDS011;67941;52.506;5.470;2023-06-26T04:26:32;3.72;;;1.50;;
78618;SDS011;67941;52.506;5.470;2023-06-26T04:29:01;1.98;;;1.17;;
78618;SDS011;67941;52.506;5.470;2023-06-26T04:31:30;2.75;;;1.00;;
78618;SDS011;67941;52.506;5.470;2023-06-26T04:33:59;2.78;;;0.85;;
78618;SDS011;67941;52.506;5.470;2023-06-26T04:36:31;2.15;;;0.60;;
78618;SDS011;67941;52.506;5.470;2023-06-26T04:39:04;2.88;;;1.23;;
78618;SDS011;67941;52.506;5.470;2023-06-26T04:41:33;2.00;;;0.60;;
78618;SDS011;67941;52.506;5.470;2023-06-26T04:44:02;2.70;;;0.95;;
78618;SDS011;67941;52.506;5.470;2023-06-26T04:46:31;2.25;;;0.80;;
78618;SDS011;67941;52.506;5.470;2023-06-26T04:49:00;2.20;;;0.85;;
78618;SDS011;67941;52.506;5.470;2023-06-26T04:51:31;1.30;;;0.50;;
78618;SDS011;67941;52.506;5.470;2023-06-26T04:54:05;2.80;;;0.68;;
78618;SDS011;67941;52.506;5.470;2023-06-26T04:56:35;4.57;;;0.85;;
78618;SDS011;67941;52.506;5.470;2023-06-26T04:59:06;1.63;;;0.60;;
78618;SDS011;67941;52.506;5.470;2023-06-26T05:01:38;1.70;;;0.60;;
78618;SDS011;67941;52.506;5.470;2023-06-26T05:04:07;2.63;;;0.95;;
78618;SDS011;67941;52.506;5.470;2023-06-26T05:06:39;2.17;;;0.95;;
78618;SDS011;67941;52.506;5.470;2023-06-26T05:09:08;2.58;;;0.65;;
78618;SDS011;67941;52.506;5.470;2023-06-26T05:11:36;1.10;;;0.70;;
78618;SDS011;67941;52.506;5.470;2023-06-26T05:14:05;1.23;;;0.20;;
78618;SDS011;67941;52.506;5.470;2023-06-26T05:16:35;1.08;;;0.60;;
78618;SDS011;67941;52.506;5.470;2023-06-26T05:19:04;2.55;;;0.63;;
78618;SDS011;67941;52.506;5.470;2023-06-26T05:21:33;3.17;;;0.98;;
78618;SDS011;67941;52.506;5.470;2023-06-26T05:24:05;1.85;;;0.90;;
78618;SDS011;67941;52.506;5.470;2023-06-26T05:26:35;2.30;;;0.73;;
78618;SDS011;67941;52.506;5.470;2023-06-26T05:29:05;2.30;;;0.90;;
78618;SDS011;67941;52.506;5.470;2023-06-26T05:31:34;1.52;;;0.43;;
78618;SDS011;67941;52.506;5.470;2023-06-26T05:34:08;1.63;;;0.77;;
78618;SDS011;67941;52.506;5.470;2023-06-26T05:36:39;2.28;;;1.05;;
78618;SDS011;67941;52.506;5.470;2023-06-26T05:39:13;2.45;;;1.10;;
78618;SDS011;67941;52.506;5.470;2023-06-26T05:41:43;1.75;;;0.82;;
78618;SDS011;67941;52.506;5.470;2023-06-26T05:44:12;1.88;;;0.98;;
78618;SDS011;67941;52.506;5.470;2023-06-26T05:46:41;1.52;;;0.65;;
78618;SDS011;67941;52.506;5.470;2023-06-26T05:49:10;2.30;;;0.70;;
78618;SDS011;67941;52.506;5.470;2023-06-26T05:51:40;1.45;;;0.40;;
78618;SDS011;67941;52.506;5.470;2023-06-26T05:54:10;1.30;;;0.80;;
78618;SDS011;67941;52.506;5.470;2023-06-26T05:56:42;0.95;;;0.65;;
78618;SDS011;67941;52.506;5.470;2023-06-26T05:59:11;1.42;;;0.57;;
78618;SDS011;67941;52.506;5.470;2023-06-26T06:01:41;1.35;;;0.60;;
78618;SDS011;67941;52.506;5.470;2023-06-26T06:04:10;0.65;;;0.40;;
78618;SDS011;67941;52.506;5.470;2023-06-26T06:06:39;2.08;;;1.40;;
78618;SDS011;67941;52.506;5.470;2023-06-26T06:09:08;1.50;;;0.70;;
78618;SDS011;67941;52.506;5.470;2023-06-26T06:11:39;2.78;;;1.05;;
78618;SDS011;67941;52.506;5.470;2023-06-26T06:14:08;2.20;;;0.80;;
78618;SDS011;67941;52.506;5.470;2023-06-26T06:16:37;3.17;;;1.17;;
78618;SDS011;67941;52.506;5.470;2023-06-26T06:19:06;2.20;;;0.50;;
78618;SDS011;67941;52.506;5.470;2023-06-26T06:21:36;1.48;;;0.90;;
78618;SDS011;67941;52.506;5.470;2023-06-26T06:24:05;1.83;;;0.90;;
78618;SDS011;67941;52.506;5.470;2023-06-26T06:26:35;2.35;;;1.00;;
78618;SDS011;67941;52.506;5.470;2023-06-26T06:29:06;1.75;;;0.77;;
78618;SDS011;67941;52.506;5.470;2023-06-26T06:31:35;2.35;;;0.93;;
78618;SDS011;67941;52.506;5.470;2023-06-26T06:34:04;4.38;;;1.23;;
78618;SDS011;67941;52.506;5.470;2023-06-26T06:36:33;1.48;;;0.70;;
78618;SDS011;67941;52.506;5.470;2023-06-26T06:39:02;2.38;;;0.82;;
78618;SDS011;67941;52.506;5.470;2023-06-26T06:41:31;1.92;;;0.82;;
78618;SDS011;67941;52.506;5.470;2023-06-26T06:44:10;2.08;;;0.80;;
78618;SDS011;67941;52.506;5.470;2023-06-26T06:46:39;1.67;;;0.73;;
78618;SDS011;67941;52.506;5.470;2023-06-26T06:49:08;1.75;;;0.80;;
78618;SDS011;67941;52.506;5.470;2023-06-26T06:51:37;1.63;;;1.00;;
78618;SDS011;67941;52.506;5.470;2023-06-26T06:54:06;3.85;;;0.88;;
78618;SDS011;67941;52.506;5.470;2023-06-26T06:56:34;2.63;;;1.13;;
78618;SDS011;67941;52.506;5.470;2023-06-26T06:59:03;1.60;;;0.70;;
78618;SDS011;67941;52.506;5.470;2023-06-26T07:01:35;1.98;;;0.63;;
78618;SDS011;67941;52.506;5.470;2023-06-26T07:04:04;2.50;;;0.77;;
78618;SDS011;67941;52.506;5.470;2023-06-26T07:06:33;0.80;;;0.40;;
78618;SDS011;67941;52.506;5.470;2023-06-26T07:09:02;2.05;;;0.70;;
78618;SDS011;67941;52.506;5.470;2023-06-26T07:11:32;3.17;;;1.30;;
78618;SDS011;67941;52.506;5.470;2023-06-26T07:14:01;2.25;;;0.95;;
78618;SDS011;67941;52.506;5.470;2023-06-26T07:16:29;1.15;;;0.63;;
78618;SDS011;67941;52.506;5.470;2023-06-26T07:19:01;1.13;;;0.80;;
78618;SDS011;67941;52.506;5.470;2023-06-26T07:21:30;2.75;;;0.80;;
78618;SDS011;67941;52.506;5.470;2023-06-26T07:23:59;3.15;;;1.00;;
78618;SDS011;67941;52.506;5.470;2023-06-26T07:26:28;3.45;;;1.25;;
78618;SDS011;67941;52.506;5.470;2023-06-26T07:28:57;3.67;;;1.23;;
78618;SDS011;67941;52.506;5.470;2023-06-26T07:31:25;2.38;;;0.80;;
78618;SDS011;67941;52.506;5.470;2023-06-26T07:33:54;2.97;;;1.20;;
78618;SDS011;67941;52.506;5.470;2023-06-26T07:36:44;1.88;;;0.98;;
78618;SDS011;67941;52.506;5.470;2023-06-26T07:39:13;2.17;;;1.25;;
78618;SDS011;67941;52.506;5.470;2023-06-26T07:41:42;2.72;;;0.93;;
78618;SDS011;67941;52.506;5.470;2023-06-26T07:44:11;2.30;;;1.00;;
78618;SDS011;67941;52.506;5.470;2023-06-26T07:46:40;1.95;;;0.90;;
78618;SDS011;67941;52.506;5.470;2023-06-26T07:49:10;2.45;;;1.05;;
78618;SDS011;67941;52.506;5.470;2023-06-26T07:51:39;2.45;;;0.85;;
78618;SDS011;67941;52.506;5.470;2023-06-26T07:54:10;1.40;;;0.80;;
78618;SDS011;67941;52.506;5.470;2023-06-26T07:56:52;3.08;;;1.08;;
78618;SDS011;67941;52.506;5.470;2023-06-26T07:59:22;2.38;;;0.88;;
78618;SDS011;67941;52.506;5.470;2023-06-26T08:01:53;3.30;;;0.90;;
78618;SDS011;67941;52.506;5.470;2023-06-26T08:04:26;2.38;;;0.90;;
78618;SDS011;67941;52.506;5.470;2023-06-26T08:06:58;2.53;;;1.13;;
78618;SDS011;67941;52.506;5.470;2023-06-26T08:09:31;2.80;;;0.98;;
78618;SDS011;67941;52.506;5.470;2023-06-26T08:12:00;3.15;;;1.05;;
78618;SDS011;67941;52.506;5.470;2023-06-26T08:14:29;3.13;;;1.05;;
78618;SDS011;67941;52.506;5.470;2023-06-26T08:16:59;1.90;;;1.13;;
78618;SDS011;67941;52.506;5.470;2023-06-26T08:19:28;2.78;;;1.15;;
78618;SDS011;67941;52.506;5.470;2023-06-26T08:21:56;2.15;;;1.00;;
78618;SDS011;67941;52.506;5.470;2023-06-26T08:24:25;2.30;;;1.10;;
78618;SDS011;67941;52.506;5.470;2023-06-26T08:26:57;4.65;;;1.20;;
78618;SDS011;67941;52.506;5.470;2023-06-26T08:29:26;2.88;;;0.88;;
78618;SDS011;67941;52.506;5.470;2023-06-26T08:31:55;2.47;;;1.00;;
78618;SDS011;67941;52.506;5.470;2023-06-26T08:34:24;2.83;;;0.88;;
78618;SDS011;67941;52.506;5.470;2023-06-26T08:36:53;2.15;;;1.05;;
78618;SDS011;67941;52.506;5.470;2023-06-26T08:39:22;2.22;;;0.95;;
78618;SDS011;67941;52.506;5.470;2023-06-26T08:41:51;3.20;;;1.02;;
78618;SDS011;67941;52.506;5.470;2023-06-26T08:44:23;4.97;;;1.33;;
78618;SDS011;67941;52.506;5.470;2023-06-26T08:46:52;2.83;;;1.30;;
78618;SDS011;67941;52.506;5.470;2023-06-26T08:49:22;2.47;;;1.20;;
78618;SDS011;67941;52.506;5.470;2023-06-26T08:51:57;3.90;;;1.70;;
78618;SDS011;67941;52.506;5.470;2023-06-26T08:54:31;2.55;;;1.00;;
78618;SDS011;67941;52.506;5.470;2023-06-26T08:57:04;2.45;;;1.00;;
78618;SDS011;67941;52.506;5.470;2023-06-26T08:59:37;3.08;;;1.13;;
78618;SDS011;67941;52.506;5.470;2023-06-26T09:02:07;2.65;;;0.90;;
78618;SDS011;67941;52.506;5.470;2023-06-26T09:04:36;3.83;;;1.13;;
78618;SDS011;67941;52.506;5.470;2023-06-26T09:07:06;3.10;;;1.13;;
78618;SDS011;67941;52.506;5.470;2023-06-26T09:09:35;2.05;;;1.30;;
78618;SDS011;67941;52.506;5.470;2023-06-26T09:12:05;4.72;;;0.80;;
78618;SDS011;67941;52.506;5.470;2023-06-26T09:14:37;5.18;;;1.67;;
78618;SDS011;67941;52.506;5.470;2023-06-26T09:17:06;2.97;;;0.88;;
78618;SDS011;67941;52.506;5.470;2023-06-26T09:19:36;1.83;;;1.13;;
78618;SDS011;67941;52.506;5.470;2023-06-26T09:22:10;2.78;;;1.30;;
78618;SDS011;67941;52.506;5.470;2023-06-26T09:24:43;2.30;;;0.70;;
78618;SDS011;67941;52.506;5.470;2023-06-26T09:27:12;1.63;;;0.65;;
78618;SDS011;67941;52.506;5.470;2023-06-26T09:29:43;1.70;;;0.93;;
78618;SDS011;67941;52.506;5.470;2023-06-26T09:32:14;3.28;;;1.15;;
78618;SDS011;67941;52.506;5.470;2023-06-26T09:34:43;2.10;;;1.10;;
78618;SDS011;67941;52.506;5.470;2023-06-26T09:37:12;1.83;;;0.95;;
78618;SDS011;67941;52.506;5.470;2023-06-26T09:39:41;2.30;;;1.23;;
78618;SDS011;67941;52.506;5.470;2023-06-26T09:42:13;2.00;;;0.88;;
78618;SDS011;67941;52.506;5.470;2023-06-26T09:44:46;1.38;;;0.73;;
78618;SDS011;67941;52.506;5.470;2023-06-26T09:47:16;2.35;;;1.08;;
78618;SDS011;67941;52.506;5.470;2023-06-26T09:49:47;2.45;;;0.45;;
78618;SDS011;67941;52.506;5.470;2023-06-26T09:52:18;2.47;;;1.30;;
78618;SDS011;67941;52.506;5.470;2023-06-26T09:54:47;2.45;;;1.17;;
78618;SDS011;67941;52.506;5.470;2023-06-26T09:57:16;2.92;;;0.82;;
78618;SDS011;67941;52.506;5.470;2023-06-26T09:59:49;2.63;;;0.70;;
78618;SDS011;67941;52.506;5.470;2023-06-26T10:04:47;2.05;;;1.10;;
78618;SDS011;67941;52.506;5.470;2023-06-26T10:07:15;3.22;;;0.70;;
78618;SDS011;67941;52.506;5.470;2023-06-26T10:09:45;1.80;;;0.93;;
78618;SDS011;67941;52.506;5.470;2023-06-26T10:12:16;1.35;;;0.70;;
78618;SDS011;67941;52.506;5.470;2023-06-26T10:14:50;1.90;;;0.65;;
78618;SDS011;67941;52.506;5.470;2023-06-26T10:17:20;1.70;;;0.40;;
78618;SDS011;67941;52.506;5.470;2023-06-26T10:19:50;1.95;;;0.85;;
78618;SDS011;67941;52.506;5.470;2023-06-26T10:22:21;1.60;;;0.80;;
78618;SDS011;67941;52.506;5.470;2023-06-26T10:24:58;1.77;;;0.63;;
78618;SDS011;67941;52.506;5.470;2023-06-26T10:27:30;1.70;;;1.00;;
78618;SDS011;67941;52.506;5.470;2023-06-26T10:30:05;1.92;;;1.00;;
78618;SDS011;67941;52.506;5.470;2023-06-26T10:32:39;3.17;;;0.75;;
78618;SDS011;67941;52.506;5.470;2023-06-26T10:35:09;1.33;;;0.95;;
78618;SDS011;67941;52.506;5.470;2023-06-26T10:37:42;3.13;;;0.82;;
78618;SDS011;67941;52.506;5.470;2023-06-26T10:40:12;1.35;;;0.65;;
78618;SDS011;67941;52.506;5.470;2023-06-26T10:42:48;1.63;;;0.77;;
78618;SDS011;67941;52.506;5.470;2023-06-26T10:45:20;1.83;;;1.05;;
78618;SDS011;67941;52.506;5.470;2023-06-26T10:47:52;1.52;;;1.13;;
78618;SDS011;67941;52.506;5.470;2023-06-26T10:50:23;1.98;;;0.93;;
78618;SDS011;67941;52.506;5.470;2023-06-26T10:55:47;1.92;;;0.90;;
78618;SDS011;67941;52.506;5.470;2023-06-26T10:58:29;2.42;;;0.82;;
78618;SDS011;67941;52.506;5.470;2023-06-26T11:04:03;3.03;;;1.30;;
78618;SDS011;67941;52.506;5.470;2023-06-26T11:06:34;1.50;;;0.68;;
78618;SDS011;67941;52.506;5.470;2023-06-26T11:09:08;0.60;;;0.32;;
78618;SDS011;67941;52.506;5.470;2023-06-26T11:14:25;2.67;;;0.47;;
78618;SDS011;67941;52.506;5.470;2023-06-26T11:16:57;1.85;;;0.43;;
78618;SDS011;67941;52.506;5.470;2023-06-26T11:22:01;1.58;;;0.43;;
78618;SDS011;67941;52.506;5.470;2023-06-26T11:24:31;2.33;;;0.80;;
78618;SDS011;67941;52.506;5.470;2023-06-26T11:27:00;2.33;;;0.50;;
78618;SDS011;67941;52.506;5.470;2023-06-26T11:29:33;0.93;;;0.63;;
78618;SDS011;67941;52.506;5.470;2023-06-26T11:32:06;2.17;;;0.45;;
78618;SDS011;67941;52.506;5.470;2023-06-26T11:34:35;2.05;;;0.70;;
78618;SDS011;67941;52.506;5.470;2023-06-26T11:37:04;1.33;;;0.70;;
78618;SDS011;67941;52.506;5.470;2023-06-26T11:39:34;1.85;;;0.20;;
78618;SDS011;67941;52.506;5.470;2023-06-26T11:42:04;3.03;;;0.60;;
78618;SDS011;67941;52.506;5.470;2023-06-26T11:44:39;1.60;;;1.15;;
78618;SDS011;67941;52.506;5.470;2023-06-26T11:47:16;3.15;;;0.80;;
78618;SDS011;67941;52.506;5.470;2023-06-26T11:49:48;2.35;;;0.80;;
78618;SDS011;67941;52.506;5.470;2023-06-26T11:52:17;1.60;;;0.73;;
78618;SDS011;67941;52.506;5.470;2023-06-26T11:54:47;2.85;;;0.80;;
78618;SDS011;67941;52.506;5.470;2023-06-26T11:57:16;3.78;;;0.77;;
78618;SDS011;67941;52.506;5.470;2023-06-26T11:59:45;1.90;;;0.90;;
78618;SDS011;67941;52.506;5.470;2023-06-26T12:02:20;1.30;;;0.77;;
78618;SDS011;67941;52.506;5.470;2023-06-26T12:04:49;4.63;;;0.95;;
78618;SDS011;67941;52.506;5.470;2023-06-26T12:07:19;1.65;;;0.70;;
78618;SDS011;67941;52.506;5.470;2023-06-26T12:09:48;2.05;;;0.25;;
78618;SDS011;67941;52.506;5.470;2023-06-26T12:12:17;2.10;;;0.70;;
78618;SDS011;67941;52.506;5.470;2023-06-26T12:14:46;2.33;;;0.82;;
78618;SDS011;67941;52.506;5.470;2023-06-26T12:17:15;5.32;;;1.25;;
78618;SDS011;67941;52.506;5.470;2023-06-26T12:19:47;1.30;;;1.13;;
78618;SDS011;67941;52.506;5.470;2023-06-26T12:22:16;1.10;;;0.50;;
78618;SDS011;67941;52.506;5.470;2023-06-26T12:24:46;2.65;;;0.57;;
78618;SDS011;67941;52.506;5.470;2023-06-26T12:27:17;3.25;;;0.90;;
78618;SDS011;67941;52.506;5.470;2023-06-26T12:29:49;1.33;;;0.25;;
78618;SDS011;67941;52.506;5.470;2023-06-26T12:32:20;1.42;;;0.70;;
78618;SDS011;67941;52.506;5.470;2023-06-26T12:34:56;1.25;;;0.30;;
78618;SDS011;67941;52.506;5.470;2023-06-26T12:37:26;2.05;;;0.80;;
78618;SDS011;67941;52.506;5.470;2023-06-26T12:39:55;1.85;;;0.88;;
78618;SDS011;67941;52.506;5.470;2023-06-26T12:42:26;1.88;;;0.60;;
78618;SDS011;67941;52.506;5.470;2023-06-26T12:44:56;1.05;;;0.60;;
78618;SDS011;67941;52.506;5.470;2023-06-26T12:47:25;1.52;;;0.50;;
78618;SDS011;67941;52.506;5.470;2023-06-26T12:50:04;0.90;;;0.68;;
78618;SDS011;67941;52.506;5.470;2023-06-26T12:52:34;1.48;;;0.50;;
78618;SDS011;67941;52.506;5.470;2023-06-26T12:55:03;1.00;;;0.43;;
78618;SDS011;67941;52.506;5.470;2023-06-26T12:57:34;1.17;;;0.70;;
78618;SDS011;67941;52.506;5.470;2023-06-26T13:00:03;3.83;;;0.80;;
78618;SDS011;67941;52.506;5.470;2023-06-26T13:02:35;2.38;;;0.35;;
78618;SDS011;67941;52.506;5.470;2023-06-26T13:05:07;1.20;;;0.80;;
78618;SDS011;67941;52.506;5.470;2023-06-26T13:07:36;3.08;;;0.77;;
78618;SDS011;67941;52.506;5.470;2023-06-26T13:10:06;2.03;;;0.40;;
78618;SDS011;67941;52.506;5.470;2023-06-26T13:12:35;3.92;;;0.47;;
78618;SDS011;67941;52.506;5.470;2023-06-26T13:15:05;1.27;;;0.80;;
78618;SDS011;67941;52.506;5.470;2023-06-26T13:17:34;1.80;;;0.68;;
78618;SDS011;67941;52.506;5.470;2023-06-26T13:20:04;1.70;;;1.08;;
78618;SDS011;67941;52.506;5.470;2023-06-26T13:22:36;1.15;;;0.80;;
78618;SDS011;67941;52.506;5.470;2023-06-26T13:25:05;1.70;;;0.70;;
78618;SDS011;67941;52.506;5.470;2023-06-26T13:27:35;1.17;;;0.70;;
78618;SDS011;67941;52.506;5.470;2023-06-26T13:30:04;4.40;;;0.88;;
78618;SDS011;67941;52.506;5.470;2023-06-26T13:32:34;0.80;;;0.55;;
78618;SDS011;67941;52.506;5.470;2023-06-26T13:35:04;2.70;;;0.45;;
78618;SDS011;67941;52.506;5.470;2023-06-26T13:37:36;1.92;;;0.70;;
78618;SDS011;67941;52.506;5.470;2023-06-26T13:40:07;1.35;;;0.65;;
78618;SDS011;67941;52.506;5.470;2023-06-26T13:42:37;1.38;;;0.38;;
78618;SDS011;67941;52.506;5.470;2023-06-26T13:45:07;1.90;;;0.60;;
78618;SDS011;67941;52.506;5.470;2023-06-26T13:47:37;2.85;;;0.82;;
78618;SDS011;67941;52.506;5.470;2023-06-26T13:50:09;3.00;;;0.40;;
78618;SDS011;67941;52.506;5.470;2023-06-26T13:55:08;1.98;;;0.57;;
78618;SDS011;67941;52.506;5.470;2023-06-26T13:57:37;1.58;;;0.10;;
78618;SDS011;67941;52.506;5.470;2023-06-26T14:00:07;1.98;;;0.57;;
78618;SDS011;67941;52.506;5.470;2023-06-26T14:02:41;0.70;;;0.30;;
78618;SDS011;67941;52.506;5.470;2023-06-26T14:05:13;3.00;;;1.15;;
78618;SDS011;67941;52.506;5.470;2023-06-26T14:07:44;1.00;;;0.70;;
78618;SDS011;67941;52.506;5.470;2023-06-26T14:10:13;2.88;;;0.60;;
78618;SDS011;67941;52.506;5.470;2023-06-26T14:12:42;1.83;;;1.15;;
78618;SDS011;67941;52.506;5.470;2023-06-26T14:15:11;1.58;;;0.60;;
78618;SDS011;67941;52.506;5.470;2023-06-26T14:17:39;2.17;;;0.75;;
78618;SDS011;67941;52.506;5.470;2023-06-26T14:20:09;1.77;;;0.90;;
78618;SDS011;67941;52.506;5.470;2023-06-26T14:22:42;2.05;;;0.70;;
78618;SDS011;67941;52.506;5.470;2023-06-26T14:25:12;3.80;;;1.10;;
78618;SDS011;67941;52.506;5.470;2023-06-26T14:27:41;2.42;;;0.80;;
78618;SDS011;67941;52.506;5.470;2023-06-26T14:30:11;1.30;;;0.65;;
78618;SDS011;67941;52.506;5.470;2023-06-26T14:32:40;1.33;;;0.65;;
78618;SDS011;67941;52.506;5.470;2023-06-26T14:35:09;0.82;;;0.52;;
78618;SDS011;67941;52.506;5.470;2023-06-26T14:37:40;2.00;;;0.85;;
78618;SDS011;67941;52.506;5.470;2023-06-26T14:40:10;0.60;;;0.45;;
78618;SDS011;67941;52.506;5.470;2023-06-26T14:42:40;0.82;;;0.20;;
78618;SDS011;67941;52.506;5.470;2023-06-26T14:45:10;1.30;;;0.75;;
78618;SDS011;67941;52.506;5.470;2023-06-26T14:47:39;3.25;;;0.50;;
78618;SDS011;67941;52.506;5.470;2023-06-26T14:50:09;1.25;;;0.65;;
78618;SDS011;67941;52.506;5.470;2023-06-26T14:52:40;2.10;;;0.65;;
78618;SDS011;67941;52.506;5.470;2023-06-26T14:55:09;1.50;;;0.60;;
78618;SDS011;67941;52.506;5.470;2023-06-26T14:57:38;2.15;;;0.70;;
78618;SDS011;67941;52.506;5.470;2023-06-26T15:00:08;1.20;;;0.70;;
78618;SDS011;67941;52.506;5.470;2023-06-26T15:02:38;1.08;;;0.50;;
78618;SDS011;67941;52.506;5.470;2023-06-26T15:05:07;2.28;;;0.80;;
78618;SDS011;67941;52.506;5.470;2023-06-26T15:07:36;2.60;;;0.50;;
78618;SDS011;67941;52.506;5.470;2023-06-26T15:10:08;1.10;;;0.70;;
78618;SDS011;67941;52.506;5.470;2023-06-26T15:12:38;1.35;;;0.82;;
78618;SDS011;67941;52.506;5.470;2023-06-26T15:15:07;2.50;;;0.75;;
78618;SDS011;67941;52.506;5.470;2023-06-26T15:17:38;0.80;;;0.40;;
78618;SDS011;67941;52.506;5.470;2023-06-26T15:20:07;1.23;;;0.50;;
78618;SDS011;67941;52.506;5.470;2023-06-26T15:22:36;0.80;;;0.20;;
78618;SDS011;67941;52.506;5.470;2023-06-26T15:25:09;1.42;;;0.75;;
78618;SDS011;67941;52.506;5.470;2023-06-26T15:27:37;2.33;;;0.50;;